Time;durP1;ratioP1;P1;durP2;ratioP2;P2;SDS_P1;SDS_P2;PMS_P1;PMS_P2;Temp;Humidity;BMP_temperature;BMP_pressure;BME280_temperature;BME280_humidity;BME280_pressure;Samples;Min_cycle;Max_cycle;Signal;HPM_P1;HPM_P2
2024/01/30 00:01:07;;;;;;;;;;;;;;;1.08;100.00;102581.56;109265;1252;74489;-55
2024/01/30 00:03:35;;;;;;;;;;;;;;;1.08;100.00;102576.55;109228;1253;66896;-56
2024/01/30 00:06:05;;;;;;;;;;;;;;;1.07;100.00;102580.06;109240;1252;72708;-56
2024/01/30 00:08:33;;;;;;;;;;;;;;;1.06;100.00;102575.80;109264;1253;59503;-56
2024/01/30 00:11:01;;;;;;;;;;;;;;;1.05;100.00;102574.28;109281;1253;59293;-56
2024/01/30 00:13:28;;;;;;;;;;;;;;;1.04;100.00;102571.44;109269;1253;74738;-64
2024/01/30 00:15:56;;;;;;;;;;;;;;;1.01;100.00;102565.91;109264;1253;66974;-57
2024/01/30 00:18:23;;;;;;;;;;;;;;;0.99;100.00;102566.35;109241;1254;72748;-56
2024/01/30 00:20:51;;;;;;;;;;;;;;;0.98;100.00;102562.63;109242;1253;58972;-56
2024/01/30 00:23:18;;;;;;;;;;;;;;;1.00;100.00;102560.83;109251;1253;60041;-56
2024/01/30 00:25:46;;;;;;;;;;;;;;;1.00;100.00;102556.38;109235;1253;74682;-58
2024/01/30 00:28:13;;;;;;;;;;;;;;;0.98;100.00;102558.50;109245;1253;67312;-57
2024/01/30 00:30:41;;;;;;;;;;;;;;;1.01;100.00;102559.27;109215;1252;72766;-58
2024/01/30 00:33:09;;;;;;;;;;;;;;;1.01;100.00;102556.69;109245;1253;59341;-56
2024/01/30 00:35:36;;;;;;;;;;;;;;;0.98;100.00;102553.54;109299;1253;58884;-57
2024/01/30 00:38:04;;;;;;;;;;;;;;;0.99;100.00;102550.10;109214;1253;75172;-59
2024/01/30 00:40:31;;;;;;;;;;;;;;;0.99;100.00;102550.11;109262;1253;65708;-56
2024/01/30 00:42:59;;;;;;;;;;;;;;;0.96;100.00;102547.98;109216;1253;71740;-56
2024/01/30 00:45:26;;;;;;;;;;;;;;;0.96;100.00;102547.48;109180;1253;59697;-58
2024/01/30 00:47:54;;;;;;;;;;;;;;;0.96;100.00;102545.95;109216;1253;59025;-62
2024/01/30 00:50:21;;;;;;;;;;;;;;;0.96;100.00;102547.28;109187;1253;74437;-57
2024/01/30 00:52:49;;;;;;;;;;;;;;;0.97;100.00;102544.36;109259;1253;65993;-56
2024/01/30 00:55:17;;;;;;;;;;;;;;;0.97;100.00;102543.46;109221;1253;72738;-56
2024/01/30 00:57:44;;;;;;;;;;;;;;;0.95;100.00;102541.02;109223;1253;60948;-56
2024/01/30 01:00:13;;;;;;;;;;;;;;;0.92;100.00;102537.39;109172;1253;59460;-57
2024/01/30 01:02:40;;;;;;;;;;;;;;;0.91;100.00;102542.38;109223;1253;73732;-56
2024/01/30 01:05:08;;;;;;;;;;;;;;;0.88;100.00;102539.43;109197;1253;66953;-56
2024/01/30 01:07:35;;;;;;;;;;;;;;;0.87;100.00;102543.23;109283;1253;73222;-60
2024/01/30 01:10:03;;;;;;;;;;;;;;;0.88;100.00;102541.46;109297;1253;59529;-59
2024/01/30 01:12:31;;;;;;;;;;;;;;;0.86;100.00;102539.66;109200;1253;59848;-57
2024/01/30 01:14:58;;;;;;;;;;;;;;;0.84;100.00;102535.14;109235;1253;74714;-56
2024/01/30 01:17:27;;;;;;;;;;;;;;;0.82;100.00;102535.71;109294;1252;67739;-57
2024/01/30 01:19:54;;;;;;;;;;;;;;;0.78;100.00;102532.12;109258;1253;72733;-56
2024/01/30 01:22:22;;;;;;;;;;;;;;;0.77;100.00;102529.46;109233;1253;60949;-56
2024/01/30 01:24:50;;;;;;;;;;;;;;;0.74;100.00;102528.70;109283;1253;62272;-55
2024/01/30 01:27:17;;;;;;;;;;;;;;;0.76;100.00;102526.40;109274;1252;74786;-56
2024/01/30 01:29:45;;;;;;;;;;;;;;;0.76;100.00;102529.50;109267;1252;65675;-56
2024/01/30 01:32:13;;;;;;;;;;;;;;;0.72;100.00;102525.19;109210;1254;71318;-56
2024/01/30 01:34:40;;;;;;;;;;;;;;;0.70;100.00;102532.60;109262;1253;59838;-55
2024/01/30 01:37:08;;;;;;;;;;;;;;;0.71;100.00;102533.92;109258;1253;59943;-56
2024/01/30 01:39:35;;;;;;;;;;;;;;;0.72;100.00;102531.89;109334;1253;74766;-56
2024/01/30 01:42:03;;;;;;;;;;;;;;;0.69;100.00;102531.81;109223;1253;67062;-60
2024/01/30 01:44:30;;;;;;;;;;;;;;;0.69;100.00;102533.21;109310;1253;71661;-56
2024/01/30 01:46:58;;;;;;;;;;;;;;;0.67;100.00;102523.83;109297;1253;59442;-56
2024/01/30 01:49:25;;;;;;;;;;;;;;;0.65;100.00;102522.25;109272;1253;59522;-57
2024/01/30 01:51:53;;;;;;;;;;;;;;;0.65;100.00;102521.55;109271;1253;73275;-57
2024/01/30 01:54:22;;;;;;;;;;;;;;;0.62;100.00;102520.32;109238;1253;66692;-56
2024/01/30 01:56:49;;;;;;;;;;;;;;;0.57;100.00;102522.02;109276;1253;73258;-57
2024/01/30 01:59:17;;;;;;;;;;;;;;;0.55;100.00;102519.91;109317;1253;59461;-55
2024/01/30 02:01:46;;;;;;;;;;;;;;;0.51;100.00;102513.75;109269;1253;59057;-54
2024/01/30 02:04:13;;;;;;;;;;;;;;;0.48;100.00;102514.19;109250;1252;74726;-62
2024/01/30 02:06:42;;;;;;;;;;;;;;;0.44;100.00;102510.91;109339;1253;66909;-55
2024/01/30 02:09:10;;;;;;;;;;;;;;;0.39;100.00;102510.29;109234;1253;71437;-55
2024/01/30 02:11:37;;;;;;;;;;;;;;;0.35;100.00;102508.75;109261;1253;58903;-55
2024/01/30 02:14:05;;;;;;;;;;;;;;;0.33;100.00;102507.11;109122;1253;59437;-54
2024/01/30 02:16:32;;;;;;;;;;;;;;;0.33;100.00;102506.27;109252;1253;74751;-57
2024/01/30 02:19:00;;;;;;;;;;;;;;;0.32;100.00;102505.81;109306;1252;65979;-56
2024/01/30 02:21:27;;;;;;;;;;;;;;;0.29;100.00;102502.14;109268;1253;72716;-55
2024/01/30 02:23:56;;;;;;;;;;;;;;;0.29;100.00;102504.00;109264;1252;60480;-55
2024/01/30 02:26:23;;;;;;;;;;;;;;;0.31;100.00;102502.44;109230;1253;59921;-56
2024/01/30 02:28:51;;;;;;;;;;;;;;;0.30;100.00;102499.35;109294;1253;74178;-55
2024/01/30 02:31:18;;;;;;;;;;;;;;;0.29;100.00;102491.88;109266;1253;66971;-56
2024/01/30 02:33:46;;;;;;;;;;;;;;;0.26;100.00;102492.86;109280;1253;71617;-56
2024/01/30 02:36:15;;;;;;;;;;;;;;;0.25;100.00;102488.09;109241;1253;58876;-55
2024/01/30 02:38:42;;;;;;;;;;;;;;;0.24;100.00;102485.90;109220;1253;59891;-58
2024/01/30 02:41:10;;;;;;;;;;;;;;;0.25;100.00;102481.08;109305;1253;74712;-55
2024/01/30 02:43:37;;;;;;;;;;;;;;;0.27;100.00;102480.38;109324;1252;66020;-55
2024/01/30 02:46:05;;;;;;;;;;;;;;;0.24;100.00;102477.16;109290;1253;72740;-54
2024/01/30 02:48:33;;;;;;;;;;;;;;;0.21;100.00;102467.89;109275;1253;59155;-55
2024/01/30 02:51:01;;;;;;;;;;;;;;;0.15;100.00;102466.27;109263;1253;59104;-56
2024/01/30 02:53:28;;;;;;;;;;;;;;;0.06;100.00;102461.32;109280;1253;73614;-54
2024/01/30 02:55:55;;;;;;;;;;;;;;;-0.05;100.00;102462.80;109217;1253;66818;-55
2024/01/30 02:58:23;;;;;;;;;;;;;;;-0.17;100.00;102464.46;109275;1253;71520;-55
2024/01/30 03:00:51;;;;;;;;;;;;;;;-0.29;100.00;102468.50;109284;1253;59357;-61
2024/01/30 03:03:18;;;;;;;;;;;;;;;-0.38;100.00;102467.99;109249;1253;59916;-55
2024/01/30 03:05:46;;;;;;;;;;;;;;;-0.43;100.00;102464.61;109269;1253;73756;-56
2024/01/30 03:08:13;;;;;;;;;;;;;;;-0.49;100.00;102462.77;109268;1253;66103;-54
2024/01/30 03:10:41;;;;;;;;;;;;;;;-0.49;100.00;102462.45;109256;1253;72289;-55
2024/01/30 03:13:09;;;;;;;;;;;;;;;-0.50;100.00;102458.19;109249;1253;59573;-62
2024/01/30 03:15:36;;;;;;;;;;;;;;;-0.48;100.00;102459.16;109271;1253;58906;-55
2024/01/30 03:18:04;;;;;;;;;;;;;;;-0.47;100.00;102462.55;109282;1252;74772;-55
2024/01/30 03:20:31;;;;;;;;;;;;;;;-0.49;100.00;102459.70;109294;1252;66997;-54
2024/01/30 03:22:59;;;;;;;;;;;;;;;-0.51;100.00;102459.77;109257;1253;72715;-55
2024/01/30 03:25:27;;;;;;;;;;;;;;;-0.49;100.00;102457.30;109184;1253;61031;-57
2024/01/30 03:27:54;;;;;;;;;;;;;;;-0.47;100.00;102458.59;109267;1253;58986;-55
2024/01/30 03:30:22;;;;;;;;;;;;;;;-0.46;100.00;102459.08;109276;1253;74700;-55
2024/01/30 03:32:50;;;;;;;;;;;;;;;-0.45;100.00;102463.67;109331;1253;65789;-54
2024/01/30 03:35:18;;;;;;;;;;;;;;;-0.46;100.00;102468.80;109299;1253;72741;-54
2024/01/30 03:37:46;;;;;;;;;;;;;;;-0.46;100.00;102467.80;109228;1253;59749;-54
2024/01/30 03:40:13;;;;;;;;;;;;;;;-0.46;100.00;102475.29;109280;1253;60283;-54
2024/01/30 03:42:41;;;;;;;;;;;;;;;-0.44;100.00;102473.02;109318;1252;72997;-55
2024/01/30 03:45:09;;;;;;;;;;;;;;;-0.44;100.00;102481.54;109343;1253;66948;-54
2024/01/30 03:47:36;;;;;;;;;;;;;;;-0.41;100.00;102482.11;109260;1253;73211;-61
2024/01/30 03:50:04;;;;;;;;;;;;;;;-0.41;100.00;102481.42;109269;1254;60915;-54
2024/01/30 03:52:32;;;;;;;;;;;;;;;-0.40;100.00;102477.65;109238;1253;58957;-54
2024/01/30 03:54:59;;;;;;;;;;;;;;;-0.39;100.00;102470.94;109260;1253;74759;-55
2024/01/30 03:57:27;;;;;;;;;;;;;;;-0.40;100.00;102472.01;109296;1253;68973;-61
2024/01/30 03:59:54;;;;;;;;;;;;;;;-0.43;100.00;102469.38;109245;1253;72272;-54
2024/01/30 04:02:23;;;;;;;;;;;;;;;-0.44;100.00;102469.43;109239;1255;59323;-54
2024/01/30 04:04:51;;;;;;;;;;;;;;;-0.46;100.00;102464.53;109292;1253;60050;-55
2024/01/30 04:07:19;;;;;;;;;;;;;;;-0.46;100.00;102459.41;109274;1253;74738;-54
2024/01/30 04:09:50;;;;;;;;;;;;;;;-0.47;100.00;102460.64;109273;1253;65770;-54
2024/01/30 04:12:17;;;;;;;;;;;;;;;-0.48;100.00;102466.65;109267;1253;72483;-56
2024/01/30 04:14:45;;;;;;;;;;;;;;;-0.48;100.00;102464.80;109219;1253;58879;-54
2024/01/30 04:17:13;;;;;;;;;;;;;;;-0.50;100.00;102461.44;109262;1253;59643;-55
2024/01/30 04:19:40;;;;;;;;;;;;;;;-0.53;100.00;102468.87;109240;1253;73468;-61
2024/01/30 04:22:08;;;;;;;;;;;;;;;-0.52;100.00;102460.16;109263;1252;66964;-55
2024/01/30 04:24:36;;;;;;;;;;;;;;;-0.53;100.00;102457.45;109275;1253;72713;-55
2024/01/30 04:27:03;;;;;;;;;;;;;;;-0.55;100.00;102456.68;109256;1253;59235;-58
2024/01/30 04:29:32;;;;;;;;;;;;;;;-0.57;100.00;102456.39;109223;1252;58883;-58
2024/01/30 04:31:59;;;;;;;;;;;;;;;-0.59;100.00;102451.52;109310;1253;73695;-54
2024/01/30 04:34:27;;;;;;;;;;;;;;;-0.62;100.00;102449.11;109279;1253;66928;-55
2024/01/30 04:36:55;;;;;;;;;;;;;;;-0.66;100.00;102450.25;109258;1253;72741;-57
2024/01/30 04:39:22;;;;;;;;;;;;;;;-0.70;100.00;102453.63;109255;1253;58985;-54
2024/01/30 04:41:50;;;;;;;;;;;;;;;-0.77;100.00;102456.96;109214;1252;60175;-55
2024/01/30 04:44:17;;;;;;;;;;;;;;;-0.79;100.00;102455.33;109263;1253;73461;-55
2024/01/30 04:46:44;;;;;;;;;;;;;;;-0.78;100.00;102459.21;109311;1253;66962;-57
2024/01/30 04:49:12;;;;;;;;;;;;;;;-0.77;100.00;102457.12;109336;1253;72734;-55
2024/01/30 04:51:40;;;;;;;;;;;;;;;-0.78;100.00;102457.33;109249;1253;58955;-60
2024/01/30 04:54:07;;;;;;;;;;;;;;;-0.79;100.00;102459.93;109273;1253;59078;-56
2024/01/30 04:56:35;;;;;;;;;;;;;;;-0.81;100.00;102462.89;109259;1253;74694;-56
2024/01/30 04:59:03;;;;;;;;;;;;;;;-0.82;100.00;102463.11;109284;1253;65672;-55
2024/01/30 05:01:31;;;;;;;;;;;;;;;-0.83;100.00;102459.21;109258;1253;71444;-55
2024/01/30 05:03:58;;;;;;;;;;;;;;;-0.85;100.00;102463.23;109223;1252;59016;-55
2024/01/30 05:06:26;;;;;;;;;;;;;;;-0.87;100.00;102466.91;109276;1253;60048;-56
2024/01/30 05:08:54;;;;;;;;;;;;;;;-0.91;100.00;102476.73;109280;1253;73442;-56
2024/01/30 05:11:21;;;;;;;;;;;;;;;-0.96;100.00;102471.15;109301;1252;67256;-56
2024/01/30 05:13:49;;;;;;;;;;;;;;;-0.98;100.00;102470.70;109222;1253;71399;-57
2024/01/30 05:16:16;;;;;;;;;;;;;;;-1.01;100.00;102470.61;109249;1253;59390;-56
2024/01/30 05:18:44;;;;;;;;;;;;;;;-1.02;100.00;102476.14;109308;1253;59928;-56
2024/01/30 05:21:12;;;;;;;;;;;;;;;-1.04;100.00;102481.65;109305;1253;73770;-55
2024/01/30 05:23:41;;;;;;;;;;;;;;;-1.05;100.00;102484.09;109254;1252;67057;-63
2024/01/30 05:26:09;;;;;;;;;;;;;;;-1.05;100.00;102483.73;109247;1252;72061;-56
2024/01/30 05:28:36;;;;;;;;;;;;;;;-1.07;100.00;102488.40;109269;1253;60958;-61
2024/01/30 05:31:04;;;;;;;;;;;;;;;-1.08;100.00;102491.86;109285;1253;59495;-56
2024/01/30 05:33:31;;;;;;;;;;;;;;;-1.08;100.00;102489.14;109300;1253;74853;-64
2024/01/30 05:35:59;;;;;;;;;;;;;;;-1.09;100.00;102495.98;109328;1253;65700;-56
2024/01/30 05:38:27;;;;;;;;;;;;;;;-1.11;100.00;102492.98;109289;1253;72746;-55
2024/01/30 05:40:55;;;;;;;;;;;;;;;-1.11;100.00;102491.80;109232;1252;60932;-56
2024/01/30 05:43:22;;;;;;;;;;;;;;;-1.13;100.00;102491.34;109281;1252;60013;-59
2024/01/30 05:45:50;;;;;;;;;;;;;;;-1.12;100.00;102490.48;109233;1255;75076;-57
2024/01/30 05:48:18;;;;;;;;;;;;;;;-1.10;100.00;102489.71;109269;1253;67033;-56
2024/01/30 05:50:46;;;;;;;;;;;;;;;-1.09;100.00;102493.10;109274;1253;72842;-56
2024/01/30 05:53:13;;;;;;;;;;;;;;;-1.06;100.00;102493.82;109251;1253;60987;-56
2024/01/30 05:55:41;;;;;;;;;;;;;;;-1.06;100.00;102493.84;109208;1252;60102;-62
2024/01/30 05:58:08;;;;;;;;;;;;;;;-1.10;100.00;102494.48;109316;1252;73788;-56
2024/01/30 06:00:36;;;;;;;;;;;;;;;-1.16;100.00;102497.24;109280;1253;67131;-57
2024/01/30 06:03:03;;;;;;;;;;;;;;;-1.20;100.00;102501.83;109272;1253;71419;-56
2024/01/30 06:05:31;;;;;;;;;;;;;;;-1.23;100.00;102503.42;109202;1253;60942;-65
2024/01/30 06:07:58;;;;;;;;;;;;;;;-1.19;100.00;102506.07;109271;1253;59022;-56
2024/01/30 06:10:26;;;;;;;;;;;;;;;-1.16;100.00;102503.41;109343;1253;74734;-56
2024/01/30 06:12:54;;;;;;;;;;;;;;;-1.13;100.00;102505.65;109281;1253;65185;-57
2024/01/30 06:15:21;;;;;;;;;;;;;;;-1.10;100.00;102506.42;109227;1253;72714;-60
2024/01/30 06:17:49;;;;;;;;;;;;;;;-1.08;100.00;102504.98;109236;1253;61054;-55
2024/01/30 06:20:16;;;;;;;;;;;;;;;-1.02;100.00;102510.76;109249;1253;59476;-55
2024/01/30 06:22:44;;;;;;;;;;;;;;;-0.98;100.00;102505.17;109271;1253;74803;-55
2024/01/30 06:25:12;;;;;;;;;;;;;;;-0.97;100.00;102503.23;109221;1253;65721;-56
2024/01/30 06:27:40;;;;;;;;;;;;;;;-0.91;100.00;102499.47;109215;1253;71736;-55
2024/01/30 06:30:08;;;;;;;;;;;;;;;-0.87;100.00;102502.07;109211;1254;63106;-55
2024/01/30 06:32:35;;;;;;;;;;;;;;;-0.83;100.00;102503.10;109260;1253;61691;-55
2024/01/30 06:35:03;;;;;;;;;;;;;;;-0.78;100.00;102498.49;109263;1253;77185;-55
2024/01/30 06:37:31;;;;;;;;;;;;;;;-0.72;100.00;102497.42;109215;1253;69463;-64
2024/01/30 06:39:58;;;;;;;;;;;;;;;-0.61;100.00;102491.38;109227;1253;73164;-56
2024/01/30 06:42:26;;;;;;;;;;;;;;;-0.48;100.00;102491.92;109220;1253;60273;-56
2024/01/30 06:44:54;;;;;;;;;;;;;;;-0.35;100.00;102490.05;109257;1253;60033;-55
2024/01/30 06:47:21;;;;;;;;;;;;;;;-0.26;100.00;102489.40;109284;1253;74712;-55
2024/01/30 06:49:49;;;;;;;;;;;;;;;-0.22;100.00;102491.66;109233;1252;67182;-60
2024/01/30 06:52:16;;;;;;;;;;;;;;;-0.23;100.00;102491.52;109277;1253;71523;-56
2024/01/30 06:54:44;;;;;;;;;;;;;;;-0.16;100.00;102489.05;109264;1253;59389;-55
2024/01/30 06:57:14;;;;;;;;;;;;;;;-0.09;100.00;102487.39;109248;1253;60068;-55
2024/01/30 06:59:43;;;;;;;;;;;;;;;0.01;100.00;102486.49;109246;1253;73795;-65
2024/01/30 07:02:11;;;;;;;;;;;;;;;0.07;100.00;102482.83;109271;1254;67462;-56
2024/01/30 07:04:40;;;;;;;;;;;;;;;0.18;100.00;102485.61;109258;1253;71923;-56
2024/01/30 07:07:14;;;;;;;;;;;;;;;0.37;100.00;102489.69;109265;1253;59140;-56
2024/01/30 07:09:43;;;;;;;;;;;;;;;0.54;100.00;102484.70;109250;1253;58875;-66
2024/01/30 07:12:10;;;;;;;;;;;;;;;0.63;100.00;102477.64;109253;1253;74739;-56
2024/01/30 07:14:38;;;;;;;;;;;;;;;0.72;100.00;102470.61;109260;1253;66998;-56
2024/01/30 07:17:06;;;;;;;;;;;;;;;0.80;100.00;102470.08;109256;1256;72700;-56
2024/01/30 07:19:34;;;;;;;;;;;;;;;0.95;100.00;102463.61;109248;1253;58991;-57
2024/01/30 07:22:02;;;;;;;;;;;;;;;1.11;100.00;102460.34;109177;1253;59917;-65
2024/01/30 07:24:29;;;;;;;;;;;;;;;1.29;100.00;102454.78;109227;1253;74687;-56
2024/01/30 07:26:57;;;;;;;;;;;;;;;1.48;100.00;102448.42;109291;1253;67137;-58
2024/01/30 07:29:25;;;;;;;;;;;;;;;1.88;100.00;102452.37;109223;1253;72608;-57
2024/01/30 07:31:52;;;;;;;;;;;;;;;2.52;100.00;102448.89;109244;1253;60853;-57
2024/01/30 07:34:20;;;;;;;;;;;;;;;3.20;100.00;102440.93;109219;1253;58986;-57
2024/01/30 07:36:47;;;;;;;;;;;;;;;3.81;100.00;102433.82;109196;1253;73460;-59
2024/01/30 07:39:15;;;;;;;;;;;;;;;4.38;100.00;102428.39;109299;1253;65810;-59
2024/01/30 07:41:43;;;;;;;;;;;;;;;4.85;100.00;102420.05;109244;1253;72676;-67
2024/01/30 07:44:10;;;;;;;;;;;;;;;5.37;100.00;102412.90;109196;1253;59480;-58
2024/01/30 07:46:38;;;;;;;;;;;;;;;5.71;100.00;102406.77;109213;1252;59212;-57
2024/01/30 07:49:05;;;;;;;;;;;;;;;5.91;100.00;102392.55;109223;1253;72692;-58
2024/01/30 07:51:33;;;;;;;;;;;;;;;6.12;100.00;102382.56;109283;1253;67506;-58
2024/01/30 07:54:00;;;;;;;;;;;;;;;6.46;100.00;102374.23;109216;1253;72764;-63
2024/01/30 07:56:28;;;;;;;;;;;;;;;6.98;100.00;102366.18;109255;1252;59403;-60
2024/01/30 07:58:55;;;;;;;;;;;;;;;7.43;100.00;102363.61;109209;1256;59009;-57
2024/01/30 08:01:23;;;;;;;;;;;;;;;7.69;100.00;102363.64;109276;1253;73446;-57
2024/01/30 08:03:50;;;;;;;;;;;;;;;7.96;100.00;102362.55;109246;1253;66956;-60
2024/01/30 08:06:18;;;;;;;;;;;;;;;8.28;100.00;102354.41;109216;1253;71432;-57
2024/01/30 08:08:46;;;;;;;;;;;;;;;8.64;100.00;102354.29;109214;1253;59017;-58
2024/01/30 08:11:13;;;;;;;;;;;;;;;8.88;100.00;102353.92;109251;1253;62226;-57
2024/01/30 08:13:41;;;;;;;;;;;;;;;8.79;100.00;102353.10;109276;1253;74907;-56
2024/01/30 08:16:09;;;;;;;;;;;;;;;8.70;100.00;102353.12;109237;1253;65619;-61
2024/01/30 08:18:41;;;;;;;;;;;;;;;8.67;100.00;102352.67;109260;1253;73633;-57
2024/01/30 08:21:09;;;;;;;;;;;;;;;8.79;99.85;102355.54;109227;1253;62669;-57
2024/01/30 08:23:38;;;;;;;;;;;;;;;8.92;94.85;102356.43;109229;1253;58877;-57
2024/01/30 08:26:05;;;;;;;;;;;;;;;8.98;91.52;102356.61;109201;1253;74745;-65
2024/01/30 08:28:33;;;;;;;;;;;;;;;9.00;90.08;102350.95;109208;1253;65661;-57
2024/01/30 08:31:01;;;;;;;;;;;;;;;9.11;88.69;102344.14;109258;1253;71482;-58
2024/01/30 08:33:28;;;;;;;;;;;;;;;9.12;83.32;102343.56;109185;1253;60871;-57
2024/01/30 08:35:56;;;;;;;;;;;;;;;9.09;81.34;102345.01;109232;1253;60034;-57
2024/01/30 08:38:23;;;;;;;;;;;;;;;9.12;81.72;102344.41;109191;1253;75207;-58
2024/01/30 08:40:51;;;;;;;;;;;;;;;9.30;81.98;102336.23;109271;1253;68007;-58
2024/01/30 08:43:18;;;;;;;;;;;;;;;9.49;78.93;102333.77;109218;1254;70857;-58
2024/01/30 08:45:46;;;;;;;;;;;;;;;9.59;74.79;102335.25;109202;1253;61564;-57
2024/01/30 08:48:14;;;;;;;;;;;;;;;9.62;72.42;102330.81;109209;1253;58904;-66
2024/01/30 08:50:41;;;;;;;;;;;;;;;9.64;71.98;102330.46;109223;1253;74670;-59
2024/01/30 08:53:09;;;;;;;;;;;;;;;9.68;70.34;102328.95;109226;1253;65715;-58
2024/01/30 08:55:37;;;;;;;;;;;;;;;9.74;71.43;102322.04;109184;1253;74936;-58
2024/01/30 08:58:05;;;;;;;;;;;;;;;9.89;69.16;102316.09;109169;1253;60035;-59
2024/01/30 09:00:32;;;;;;;;;;;;;;;9.90;66.77;102314.98;109166;1253;61217;-66
2024/01/30 09:03:00;;;;;;;;;;;;;;;9.71;63.37;102317.79;109180;1253;77149;-57
2024/01/30 09:05:27;;;;;;;;;;;;;;;9.43;64.26;102312.81;109267;1253;68778;-59
2024/01/30 09:07:55;;;;;;;;;;;;;;;9.39;68.98;102307.55;109228;1253;71510;-58
2024/01/30 09:10:22;;;;;;;;;;;;;;;9.65;70.01;102304.91;109217;1253;60119;-58
2024/01/30 09:12:50;;;;;;;;;;;;;;;9.85;69.16;102300.83;109190;1253;59885;-61
2024/01/30 09:15:18;;;;;;;;;;;;;;;9.99;68.06;102296.82;109240;1253;72831;-58
2024/01/30 09:17:46;;;;;;;;;;;;;;;10.06;64.18;102296.41;109219;1253;65639;-59
2024/01/30 09:20:13;;;;;;;;;;;;;;;9.96;61.84;102291.73;109238;1253;73742;-60
2024/01/30 09:22:41;;;;;;;;;;;;;;;9.83;61.65;102292.11;109195;1253;60416;-66
2024/01/30 09:25:09;;;;;;;;;;;;;;;9.74;62.23;102296.17;109191;1253;59969;-58
2024/01/30 09:27:37;;;;;;;;;;;;;;;9.69;61.58;102292.80;109254;1253;77430;-58
2024/01/30 09:30:05;;;;;;;;;;;;;;;9.60;63.00;102293.20;109244;1253;69286;-58
2024/01/30 09:32:32;;;;;;;;;;;;;;;9.54;63.19;102284.30;109217;1253;74768;-58
2024/01/30 09:35:00;;;;;;;;;;;;;;;9.50;63.91;102277.85;109204;1253;62871;-59
2024/01/30 09:37:28;;;;;;;;;;;;;;;9.40;63.28;102274.70;109227;1253;61177;-57
2024/01/30 09:39:56;;;;;;;;;;;;;;;9.11;62.25;102268.17;109259;1253;75981;-57
2024/01/30 09:42:28;;;;;;;;;;;;;;;8.81;64.46;102259.86;109212;1253;67085;-57
2024/01/30 09:44:56;;;;;;;;;;;;;;;8.57;67.01;102257.63;109192;1253;74303;-58
2024/01/30 09:47:23;;;;;;;;;;;;;;;8.44;71.04;102254.62;109149;1253;60900;-57
2024/01/30 09:49:51;;;;;;;;;;;;;;;8.54;75.51;102246.23;109195;1253;60353;-57
2024/01/30 09:52:19;;;;;;;;;;;;;;;8.73;77.44;102242.96;109247;1253;75112;-57
2024/01/30 09:54:46;;;;;;;;;;;;;;;8.96;77.12;102240.25;109240;1253;66819;-57
2024/01/30 09:57:14;;;;;;;;;;;;;;;9.09;73.81;102238.55;109368;1253;72740;-64
2024/01/30 09:59:42;;;;;;;;;;;;;;;9.11;72.89;102232.98;109141;1253;59806;-57
2024/01/30 10:02:10;;;;;;;;;;;;;;;9.18;73.40;102229.83;109208;1253;59785;-59
2024/01/30 10:04:37;;;;;;;;;;;;;;;9.20;72.60;102220.59;109224;1253;73441;-59
2024/01/30 10:07:05;;;;;;;;;;;;;;;9.25;72.68;102215.69;109265;1253;67033;-58
2024/01/30 10:09:34;;;;;;;;;;;;;;;9.28;70.89;102212.56;109057;1253;73737;-62
2024/01/30 10:12:03;;;;;;;;;;;;;;;9.21;69.75;102205.23;109231;1255;61229;-58
2024/01/30 10:14:31;;;;;;;;;;;;;;;9.13;69.81;102201.95;109234;1252;60804;-58
2024/01/30 10:16:59;;;;;;;;;;;;;;;9.01;69.46;102203.79;109187;1253;76625;-57
2024/01/30 10:19:27;;;;;;;;;;;;;;;8.87;70.10;102202.66;109170;1253;68851;-62
2024/01/30 10:21:54;;;;;;;;;;;;;;;8.78;73.60;102204.78;109156;1253;76262;-58
2024/01/30 10:24:25;;;;;;;;;;;;;;;8.86;76.77;102197.21;109183;1253;60316;-57
2024/01/30 10:26:53;;;;;;;;;;;;;;;8.95;75.49;102193.31;109242;1253;60436;-56
2024/01/30 10:29:20;;;;;;;;;;;;;;;9.00;73.35;102191.52;109241;1253;77441;-57
2024/01/30 10:32:01;;;;;;;;;;;;;;;9.07;73.14;102186.67;109107;1253;68667;-60
2024/01/30 10:34:28;;;;;;;;;;;;;;;9.07;71.64;102187.73;109248;1253;74790;-56
2024/01/30 10:37:16;;;;;;;;;;;;;;;9.07;73.22;102184.09;109239;1254;60272;-57
2024/01/30 10:39:44;;;;;;;;;;;;;;;9.21;75.37;102181.13;109225;1253;60789;-56
2024/01/30 10:42:17;;;;;;;;;;;;;;;9.30;71.47;102178.02;109178;1253;76764;-56
2024/01/30 10:45:04;;;;;;;;;;;;;;;9.20;67.69;102168.20;109164;1253;69954;-57
2024/01/30 10:47:32;;;;;;;;;;;;;;;9.02;69.31;102162.94;109180;1253;73590;-57
2024/01/30 10:49:59;;;;;;;;;;;;;;;8.94;71.70;102164.45;109223;1253;59536;-58
2024/01/30 10:52:29;;;;;;;;;;;;;;;8.90;73.92;102162.02;109234;1253;61655;-57
2024/01/30 10:54:57;;;;;;;;;;;;;;;8.91;71.73;102152.25;109192;1253;77169;-63
2024/01/30 10:57:25;;;;;;;;;;;;;;;8.83;72.54;102154.97;109184;1253;67330;-57
2024/01/30 10:59:59;;;;;;;;;;;;;;;8.84;74.61;102152.33;109198;1256;74711;-56
2024/01/30 11:02:27;;;;;;;;;;;;;;;8.92;75.26;102155.24;109257;1253;61441;-56
2024/01/30 11:04:58;;;;;;;;;;;;;;;8.98;74.05;102152.85;109122;1254;63163;-64
2024/01/30 11:07:27;;;;;;;;;;;;;;;8.91;72.40;102159.52;109230;1253;74403;-57
2024/01/30 11:09:56;;;;;;;;;;;;;;;8.79;72.84;102164.14;109329;1253;69083;-57
2024/01/30 11:12:24;;;;;;;;;;;;;;;8.71;74.02;102162.15;109239;1254;74218;-57
2024/01/30 11:15:07;;;;;;;;;;;;;;;8.67;75.52;102160.40;109241;1253;61066;-63
2024/01/30 11:17:41;;;;;;;;;;;;;;;8.69;77.56;102159.92;109288;1253;59890;-57
2024/01/30 11:20:09;;;;;;;;;;;;;;;8.72;76.39;102156.59;109223;1252;75947;-57
2024/01/30 11:22:37;;;;;;;;;;;;;;;8.66;74.18;102155.84;106479;1253;3622650;-63
2024/01/30 11:25:05;;;;;;;;;;;;;;;8.53;74.99;102144.93;109233;1253;76223;-56
2024/01/30 11:27:32;;;;;;;;;;;;;;;8.42;75.02;102145.48;109250;1253;59264;-57
2024/01/30 11:30:03;;;;;;;;;;;;;;;8.28;76.00;102141.38;109281;1253;62299;-56
2024/01/30 11:32:31;;;;;;;;;;;;;;;8.15;80.44;102135.60;109212;1253;74390;-57
2024/01/30 11:34:59;;;;;;;;;;;;;;;8.03;81.04;102141.41;109231;1254;67939;-56
2024/01/30 11:37:28;;;;;;;;;;;;;;;7.86;82.15;102133.55;109236;1253;74785;-56
2024/01/30 11:39:56;;;;;;;;;;;;;;;7.73;84.24;102128.99;109141;1259;60881;-56
2024/01/30 11:42:26;;;;;;;;;;;;;;;7.68;86.23;102131.50;109236;1253;61316;-55
2024/01/30 11:44:54;;;;;;;;;;;;;;;7.59;85.71;102132.75;109212;1253;77152;-61
2024/01/30 11:47:22;;;;;;;;;;;;;;;7.47;86.94;102134.44;109230;1252;68606;-56
2024/01/30 11:49:50;;;;;;;;;;;;;;;7.44;90.53;102136.46;109233;1253;74106;-55
2024/01/30 11:52:18;;;;;;;;;;;;;;;7.44;91.11;102130.75;109180;1254;62131;-56
2024/01/30 11:54:45;;;;;;;;;;;;;;;7.41;93.22;102128.31;109238;1253;61557;-56
2024/01/30 11:57:13;;;;;;;;;;;;;;;7.36;95.51;102122.49;109065;1253;75654;-57
2024/01/30 11:59:41;;;;;;;;;;;;;;;7.29;96.93;102126.35;109269;1253;68470;-57
2024/01/30 12:02:08;;;;;;;;;;;;;;;7.25;96.53;102119.87;109223;1254;75230;-56
2024/01/30 12:04:36;;;;;;;;;;;;;;;7.19;96.09;102122.42;109226;1254;60659;-58
2024/01/30 12:07:04;;;;;;;;;;;;;;;7.12;96.49;102121.73;109194;1258;59002;-60
2024/01/30 12:09:32;;;;;;;;;;;;;;;7.01;98.01;102118.04;109125;1254;75559;-58
2024/01/30 12:11:59;;;;;;;;;;;;;;;6.85;98.72;102117.65;109285;1252;66745;-57
2024/01/30 12:14:27;;;;;;;;;;;;;;;6.71;100.00;102116.64;109238;1254;75316;-57
2024/01/30 12:16:55;;;;;;;;;;;;;;;6.58;100.00;102116.16;109109;1253;61734;-57
2024/01/30 12:19:25;;;;;;;;;;;;;;;6.46;100.00;102114.52;109206;1253;61764;-57
2024/01/30 12:21:55;;;;;;;;;;;;;;;6.35;100.00;102118.54;109309;1253;77547;-56
2024/01/30 12:24:23;;;;;;;;;;;;;;;6.36;100.00;102115.50;109159;1253;68265;-57
2024/01/30 12:26:52;;;;;;;;;;;;;;;6.38;100.00;102116.07;109147;1254;74761;-57
2024/01/30 12:29:21;;;;;;;;;;;;;;;6.41;100.00;102109.67;109110;1253;60702;-63